createdAt,value
2022-11-03T00:01:13.306Z,83.40
2022-11-03T00:03:41.299Z,83.50
2022-11-03T00:06:09.393Z,83.40
2022-11-03T00:08:38.339Z,83.30
2022-11-03T00:11:08.693Z,83.40
2022-11-03T00:13:37.018Z,83.30
2022-11-03T00:16:05.024Z,83.20
2022-11-03T00:18:32.903Z,83.30
2022-11-03T00:21:01.327Z,83.20
2022-11-03T00:23:30.521Z,83.40
2022-11-03T00:26:04.771Z,83.40
2022-11-03T00:28:34.799Z,83.30
2022-11-03T00:31:03.048Z,83.30
2022-11-03T00:33:32.329Z,83.40
2022-11-03T00:36:01.369Z,83.60
2022-11-03T00:38:29.310Z,83.60
2022-11-03T00:40:57.169Z,83.40
2022-11-03T00:43:25.436Z,83.40
2022-11-03T00:45:55.005Z,83.50
2022-11-03T00:48:32.512Z,83.80
2022-11-03T00:51:08.229Z,84.00
2022-11-03T00:53:37.609Z,84.10
2022-11-03T00:56:06.308Z,84.20
2022-11-03T00:58:34.493Z,84.20
2022-11-03T01:01:05.246Z,84.30
2022-11-03T01:03:34.019Z,84.30
2022-11-03T01:06:19.211Z,84.10
2022-11-03T01:08:47.452Z,84.00
2022-11-03T01:11:34.049Z,83.80
2022-11-03T01:14:02.149Z,83.90
2022-11-03T01:16:33.018Z,83.90
2022-11-03T01:19:01.243Z,84.00
2022-11-03T01:21:29.193Z,83.90
2022-11-03T01:23:56.967Z,83.90
2022-11-03T01:26:24.833Z,84.10
2022-11-03T01:28:52.650Z,84.20
2022-11-03T01:31:21.601Z,84.10
2022-11-03T01:33:52.413Z,84.10
2022-11-03T01:36:20.607Z,84.00
2022-11-03T01:38:48.491Z,84.20
2022-11-03T01:41:17.352Z,84.20
2022-11-03T01:43:48.550Z,84.30
2022-11-03T01:46:18.272Z,84.30
2022-11-03T01:48:48.642Z,84.20
2022-11-03T01:51:20.041Z,84.20
2022-11-03T01:53:49.567Z,84.20
2022-11-03T01:56:17.576Z,84.20
2022-11-03T01:58:47.315Z,84.20
2022-11-03T02:01:15.303Z,84.30
2022-11-03T02:03:47.015Z,84.40
2022-11-03T02:06:15.269Z,84.30
2022-11-03T02:08:47.413Z,84.30
2022-11-03T02:11:29.237Z,84.30
2022-11-03T02:13:57.142Z,84.20
2022-11-03T02:16:25.963Z,84.10
2022-11-03T02:18:55.059Z,84.10
2022-11-03T02:21:26.930Z,84.00
2022-11-03T02:23:59.977Z,84.00
2022-11-03T02:26:29.368Z,84.10
2022-11-03T02:28:57.181Z,84.10
2022-11-03T02:31:30.153Z,84.20
2022-11-03T02:34:00.768Z,84.00
2022-11-03T02:36:30.574Z,83.90
2022-11-03T02:39:01.696Z,84.00
2022-11-03T02:41:31.711Z,84.00
2022-11-03T02:43:59.547Z,84.00
2022-11-03T02:46:27.627Z,84.00
2022-11-03T02:48:57.166Z,84.00
2022-11-03T02:51:25.294Z,84.00
2022-11-03T02:53:57.385Z,84.00
2022-11-03T02:56:25.727Z,83.90
2022-11-03T02:58:58.650Z,83.90
2022-11-03T03:01:29.645Z,83.90
2022-11-03T03:03:59.278Z,83.90
2022-11-03T03:06:29.217Z,83.90
2022-11-03T03:09:02.076Z,83.90
2022-11-03T03:11:39.459Z,83.90
2022-11-03T03:14:10.011Z,83.90
2022-11-03T03:16:42.612Z,83.70
2022-11-03T03:19:13.792Z,83.60
2022-11-03T03:21:44.622Z,83.60
2022-11-03T03:24:15.778Z,83.60
2022-11-03T03:26:45.334Z,83.80
2022-11-03T03:29:16.727Z,83.80
2022-11-03T03:31:47.358Z,83.90
2022-11-03T03:34:34.141Z,84.00
2022-11-03T03:37:03.506Z,84.10
2022-11-03T03:39:32.817Z,84.10
2022-11-03T03:42:02.674Z,84.10
2022-11-03T03:44:32.895Z,84.00
2022-11-03T03:47:03.668Z,84.00
2022-11-03T03:49:31.549Z,84.00
2022-11-03T03:51:59.653Z,84.10
2022-11-03T03:54:27.449Z,84.10
2022-11-03T03:56:58.030Z,84.20
2022-11-03T03:59:26.116Z,84.20
2022-11-03T04:01:55.379Z,84.20
2022-11-03T04:04:23.620Z,84.20
2022-11-03T04:07:12.015Z,84.20
2022-11-03T04:09:40.298Z,84.20
2022-11-03T04:12:26.974Z,84.20
2022-11-03T04:15:12.551Z,84.20
2022-11-03T04:18:01.020Z,84.20
2022-11-03T04:20:46.482Z,84.30
2022-11-03T04:23:14.377Z,84.40
2022-11-03T04:25:43.087Z,84.40
2022-11-03T04:28:13.552Z,84.40
2022-11-03T04:30:41.632Z,84.30
2022-11-03T04:33:13.942Z,84.20
2022-11-03T04:35:44.165Z,84.10
2022-11-03T04:38:21.252Z,84.20
2022-11-03T04:40:53.624Z,84.20
2022-11-03T04:43:23.998Z,84.40
2022-11-03T04:45:51.991Z,84.30
2022-11-03T04:48:23.007Z,84.20
2022-11-03T04:50:51.521Z,84.20
2022-11-03T04:53:20.485Z,84.20
2022-11-03T04:55:50.547Z,84.20
2022-11-03T04:58:20.547Z,84.20
2022-11-03T05:00:49.055Z,84.20
2022-11-03T05:03:18.612Z,84.20
2022-11-03T05:05:47.854Z,84.10
2022-11-03T05:08:17.460Z,84.10
2022-11-03T05:10:45.771Z,84.10
2022-11-03T05:13:18.661Z,84.20
2022-11-03T05:15:47.093Z,84.20
2022-11-03T05:18:17.323Z,84.30
2022-11-03T05:20:47.448Z,84.20
2022-11-03T05:23:16.830Z,84.20
2022-11-03T05:25:46.107Z,84.20
2022-11-03T05:28:21.386Z,84.10
2022-11-03T05:30:49.663Z,84.00
2022-11-03T05:33:21.991Z,84.10
2022-11-03T05:35:49.822Z,84.10
2022-11-03T05:38:20.141Z,84.20
2022-11-03T05:40:50.408Z,84.30
2022-11-03T05:43:19.282Z,84.30
2022-11-03T05:45:47.422Z,84.20
2022-11-03T05:48:17.956Z,84.20
2022-11-03T05:50:45.766Z,84.30
2022-11-03T05:53:20.381Z,84.20
2022-11-03T05:55:49.697Z,84.20
2022-11-03T05:58:25.334Z,84.20
2022-11-03T06:00:53.870Z,84.30
2022-11-03T06:03:24.502Z,84.50
2022-11-03T06:05:52.771Z,84.40
2022-11-03T06:08:21.500Z,84.40
2022-11-03T06:10:52.100Z,84.30
2022-11-03T06:13:21.498Z,84.40
2022-11-03T06:15:50.604Z,84.30
2022-11-03T06:18:20.640Z,84.40
2022-11-03T06:20:50.929Z,84.40
2022-11-03T06:23:19.514Z,84.40
2022-11-03T06:25:47.572Z,84.60
2022-11-03T06:28:19.341Z,84.60
2022-11-03T06:30:47.691Z,84.60
2022-11-03T06:33:16.865Z,84.70
2022-11-03T06:35:48.402Z,84.70
2022-11-03T06:38:19.061Z,84.60
2022-11-03T06:40:47.426Z,84.60
2022-11-03T06:43:19.149Z,84.60
2022-11-03T06:45:49.980Z,84.60
2022-11-03T06:48:21.775Z,84.70
2022-11-03T06:50:49.649Z,84.80
2022-11-03T06:53:21.292Z,84.90
2022-11-03T06:55:49.655Z,84.40
2022-11-03T06:58:24.103Z,84.60
2022-11-03T07:00:52.280Z,84.90
2022-11-03T07:03:23.376Z,84.80
2022-11-03T07:05:51.527Z,84.80
2022-11-03T07:08:22.456Z,84.40
2022-11-03T07:10:51.238Z,84.30
2022-11-03T07:13:21.145Z,84.20
2022-11-03T07:15:49.081Z,84.40
2022-11-03T07:18:20.907Z,84.90
2022-11-03T07:20:49.136Z,85.00
2022-11-03T07:23:19.888Z,85.20
2022-11-03T07:25:49.993Z,84.80
2022-11-03T07:28:18.032Z,84.10
2022-11-03T07:30:47.295Z,82.80
2022-11-03T07:33:16.281Z,79.90
2022-11-03T07:36:13.925Z,79.20
2022-11-03T07:38:34.014Z,79.10
2022-11-03T07:41:02.076Z,79.10
2022-11-03T07:43:31.560Z,78.90
2022-11-03T07:46:02.693Z,78.40
2022-11-03T07:48:34.796Z,77.70
2022-11-03T07:51:07.221Z,75.60
2022-11-03T07:53:37.507Z,74.70
2022-11-03T07:56:14.551Z,74.20
2022-11-03T07:58:42.904Z,73.20
2022-11-03T08:01:23.448Z,72.20
2022-11-03T08:03:51.667Z,71.30
2022-11-03T08:06:20.079Z,71.00
2022-11-03T08:08:48.203Z,70.60
2022-11-03T08:11:16.193Z,70.20
2022-11-03T08:13:44.165Z,69.60
2022-11-03T08:16:11.985Z,69.00
2022-11-03T08:18:41.271Z,67.90
2022-11-03T08:21:09.278Z,67.30
2022-11-03T08:23:37.077Z,67.80
2022-11-03T08:26:05.209Z,67.30
2022-11-03T08:28:33.774Z,68.40
2022-11-03T08:31:09.435Z,67.60
2022-11-03T08:33:41.649Z,66.50
2022-11-03T08:36:10.077Z,66.70
2022-11-03T08:38:38.410Z,65.30
2022-11-03T08:41:06.447Z,65.50
2022-11-03T08:43:34.504Z,64.50
2022-11-03T08:46:08.140Z,60.60
2022-11-03T08:48:38.064Z,62.00
2022-11-03T08:51:08.291Z,59.70
2022-11-03T08:53:36.442Z,57.80
2022-11-03T08:56:04.773Z,54.70
2022-11-03T08:58:33.821Z,53.40
2022-11-03T09:01:01.715Z,51.10
2022-11-03T09:03:29.639Z,47.90
2022-11-03T09:05:57.534Z,46.80
2022-11-03T09:11:14.877Z,45.80
2022-11-03T09:13:42.730Z,43.70
2022-11-03T09:16:10.639Z,42.40
2022-11-03T09:18:38.526Z,42.50
2022-11-03T09:21:06.507Z,43.50
2022-11-03T09:23:35.748Z,44.30
2022-11-03T09:26:03.807Z,44.50
2022-11-03T09:28:31.706Z,46.50
2022-11-03T09:30:59.724Z,47.70
2022-11-03T09:33:27.750Z,48.20
2022-11-03T09:35:58.213Z,49.10
2022-11-03T09:38:26.096Z,50.30
2022-11-03T09:40:55.667Z,51.90
2022-11-03T09:43:23.561Z,52.50
2022-11-03T09:45:51.555Z,53.50
2022-11-03T09:48:19.510Z,55.30
2022-11-03T09:50:48.730Z,55.20
2022-11-03T09:53:16.620Z,55.60
2022-11-03T09:55:44.672Z,55.70
2022-11-03T09:58:16.085Z,56.80
2022-11-03T10:00:44.119Z,57.80
2022-11-03T10:03:12.584Z,59.40
2022-11-03T10:05:41.065Z,60.00
2022-11-03T10:08:12.193Z,60.30
2022-11-03T10:10:41.130Z,60.50
2022-11-03T10:13:12.377Z,60.60
2022-11-03T10:15:43.612Z,60.70
2022-11-03T10:18:11.579Z,60.60
2022-11-03T10:20:39.609Z,61.70
2022-11-03T10:23:09.765Z,63.10
2022-11-03T10:25:38.726Z,63.20
2022-11-03T10:28:20.612Z,62.90
2022-11-03T10:33:42.561Z,62.00
2022-11-03T10:36:23.974Z,61.90
2022-11-03T10:38:52.095Z,61.00
2022-11-03T10:41:20.882Z,60.70
2022-11-03T10:44:00.531Z,58.90
2022-11-03T10:46:49.254Z,60.20
2022-11-03T10:49:19.646Z,61.50
2022-11-03T10:51:51.036Z,60.60
2022-11-03T10:54:20.595Z,59.80
2022-11-03T10:56:49.495Z,58.30
2022-11-03T10:59:18.276Z,57.30
2022-11-03T11:01:48.081Z,58.80
2022-11-03T11:04:16.773Z,58.80
2022-11-03T11:06:45.046Z,58.90
2022-11-03T11:09:14.052Z,59.50
2022-11-03T11:11:59.327Z,60.40
2022-11-03T11:14:37.000Z,61.70
2022-11-03T11:17:06.610Z,63.40
2022-11-03T11:19:49.417Z,64.40
2022-11-03T11:22:23.498Z,64.60
2022-11-03T11:24:57.687Z,65.50
2022-11-03T11:27:44.113Z,66.20
2022-11-03T11:30:32.664Z,67.00
2022-11-03T11:33:02.828Z,66.50
2022-11-03T11:36:04.211Z,66.90
2022-11-03T11:39:05.395Z,67.20
2022-11-03T11:41:50.937Z,67.20
2022-11-03T11:44:37.735Z,67.30
2022-11-03T11:47:19.707Z,67.20
2022-11-03T11:49:49.235Z,67.60
2022-11-03T11:52:19.288Z,67.10
2022-11-03T11:54:47.325Z,66.90
2022-11-03T11:57:19.356Z,67.30
2022-11-03T11:59:48.062Z,68.40
2022-11-03T12:02:18.683Z,68.90
2022-11-03T12:04:47.527Z,69.00
2022-11-03T12:07:16.799Z,69.50
2022-11-03T12:09:45.329Z,69.70
2022-11-03T12:12:13.210Z,69.90
2022-11-03T12:14:41.406Z,69.90
2022-11-03T12:17:27.756Z,69.80
2022-11-03T12:19:56.011Z,70.00
2022-11-03T12:22:38.721Z,69.80
2022-11-03T12:25:28.179Z,69.80
2022-11-03T12:27:56.022Z,70.00
2022-11-03T12:30:23.843Z,70.10
2022-11-03T12:32:51.989Z,70.20
2022-11-03T12:35:19.865Z,70.30
2022-11-03T12:37:47.861Z,70.60
2022-11-03T12:40:17.151Z,70.30
2022-11-03T12:42:45.058Z,70.90
2022-11-03T12:45:14.293Z,70.50
2022-11-03T12:47:42.171Z,70.60
2022-11-03T12:50:10.511Z,70.60
2022-11-03T12:52:38.430Z,70.50
2022-11-03T12:55:06.762Z,69.90
2022-11-03T12:57:36.013Z,69.10
2022-11-03T13:00:05.635Z,68.90
2022-11-03T13:02:34.413Z,68.90
2022-11-03T13:05:02.369Z,69.20
2022-11-03T13:07:34.491Z,70.10
2022-11-03T13:10:04.365Z,70.20
2022-11-03T13:12:32.252Z,70.70
2022-11-03T13:15:02.551Z,70.80
2022-11-03T13:17:40.418Z,70.50
2022-11-03T13:20:18.558Z,70.70
2022-11-03T13:22:46.296Z,71.10
2022-11-03T13:25:14.225Z,71.10
2022-11-03T13:27:42.132Z,71.50
2022-11-03T13:30:12.078Z,71.40
2022-11-03T13:32:40.208Z,71.50
2022-11-03T13:35:13.262Z,71.60
2022-11-03T13:37:41.850Z,71.80
2022-11-03T13:40:19.109Z,71.90
2022-11-03T13:42:57.302Z,72.00
2022-11-03T13:45:26.673Z,72.50
2022-11-03T13:48:38.737Z,73.10
2022-11-03T13:50:42.747Z,73.00
2022-11-03T13:56:03.096Z,73.50
2022-11-03T14:01:24.933Z,73.70
2022-11-03T14:06:41.067Z,73.80
2022-11-03T14:09:08.833Z,73.90
2022-11-03T14:11:59.671Z,74.00
2022-11-03T14:14:27.683Z,74.00
2022-11-03T14:16:57.071Z,73.90
2022-11-03T14:19:30.957Z,73.90
2022-11-03T14:22:03.304Z,73.70
2022-11-03T14:24:31.085Z,73.40
2022-11-03T14:26:58.948Z,73.30
2022-11-03T14:29:27.025Z,73.10
2022-11-03T14:31:54.875Z,73.20
2022-11-03T14:34:26.030Z,73.10
2022-11-03T14:36:54.064Z,73.30
2022-11-03T14:39:22.153Z,73.40
2022-11-03T14:42:04.230Z,73.40
2022-11-03T14:44:33.012Z,73.30
2022-11-03T14:47:02.656Z,73.30
2022-11-03T14:49:32.842Z,73.40
2022-11-03T14:52:01.719Z,73.40
2022-11-03T14:54:30.781Z,73.40
2022-11-03T14:56:58.933Z,73.40
2022-11-03T14:59:27.219Z,73.40
2022-11-03T15:01:55.583Z,73.40
2022-11-03T15:04:23.718Z,73.40
2022-11-03T15:06:52.955Z,73.60
2022-11-03T15:09:21.688Z,73.60
2022-11-03T15:11:50.026Z,73.70
2022-11-03T15:14:17.945Z,73.90
2022-11-03T15:16:46.216Z,74.00
2022-11-03T15:19:14.209Z,74.10
2022-11-03T15:21:42.323Z,74.20
2022-11-03T15:26:59.617Z,74.20
2022-11-03T15:29:27.484Z,74.30
2022-11-03T15:31:55.458Z,74.40
2022-11-03T15:34:23.506Z,74.50
2022-11-03T15:36:51.730Z,74.90
2022-11-03T15:39:21.373Z,74.90
2022-11-03T15:41:49.417Z,75.10
2022-11-03T15:44:17.374Z,75.30
2022-11-03T15:46:45.309Z,75.40
2022-11-03T15:49:13.310Z,75.50
2022-11-03T15:51:41.227Z,75.60
2022-11-03T15:54:09.492Z,75.60
2022-11-03T15:56:38.872Z,75.70
2022-11-03T15:59:07.382Z,75.90
2022-11-03T16:01:35.668Z,75.90
2022-11-03T16:04:03.795Z,76.20
2022-11-03T16:07:06.844Z,76.30
2022-11-03T16:09:19.869Z,76.50
2022-11-03T16:11:49.193Z,76.70
2022-11-03T16:14:17.183Z,76.90
2022-11-03T16:16:45.415Z,77.10
2022-11-03T16:19:13.635Z,77.20
2022-11-03T16:21:41.485Z,77.40
2022-11-03T16:24:09.599Z,77.60
2022-11-03T16:26:37.613Z,77.40
2022-11-03T16:29:06.828Z,77.60
2022-11-03T16:31:34.743Z,77.50
2022-11-03T16:34:02.821Z,77.70
2022-11-03T16:36:30.808Z,77.90
2022-11-03T16:38:58.635Z,77.90
2022-11-03T16:41:26.579Z,78.10
2022-11-03T16:43:54.462Z,78.20
2022-11-03T16:46:23.687Z,78.30
2022-11-03T16:48:51.653Z,78.40
2022-11-03T16:51:19.680Z,78.50
2022-11-03T16:53:47.613Z,78.70
2022-11-03T16:56:15.553Z,78.80
2022-11-03T16:58:43.472Z,79.10
2022-11-03T17:01:11.685Z,79.10
2022-11-03T17:03:41.490Z,79.20
2022-11-03T17:06:09.932Z,79.20
2022-11-03T17:08:52.220Z,79.60
2022-11-03T17:11:36.243Z,80.10
2022-11-03T17:14:08.870Z,80.30
2022-11-03T17:16:38.567Z,80.40
2022-11-03T17:19:08.373Z,80.30
2022-11-03T17:21:36.625Z,80.30
2022-11-03T17:24:06.700Z,80.20
2022-11-03T17:26:42.865Z,80.30
2022-11-03T17:29:14.706Z,80.40
2022-11-03T17:31:42.694Z,80.40
2022-11-03T17:34:13.020Z,80.50
2022-11-03T17:36:41.353Z,80.90
2022-11-03T17:39:10.116Z,81.00
2022-11-03T17:41:38.512Z,81.00
2022-11-03T17:44:09.736Z,81.20
2022-11-03T17:46:37.653Z,81.30
2022-11-03T17:49:05.706Z,81.50
2022-11-03T17:51:35.655Z,81.40
2022-11-03T17:54:08.233Z,81.50
2022-11-03T17:56:36.301Z,81.60
2022-11-03T17:59:04.569Z,81.60
2022-11-03T18:01:32.732Z,81.80
2022-11-03T18:04:02.842Z,81.60
2022-11-03T18:06:30.816Z,81.50
2022-11-03T18:09:00.526Z,81.40
2022-11-03T18:11:47.662Z,81.40
2022-11-03T18:14:22.718Z,81.30
2022-11-03T18:16:51.453Z,81.50
2022-11-03T18:19:20.501Z,81.80
2022-11-03T18:21:49.049Z,81.90
2022-11-03T18:24:19.699Z,82.00
2022-11-03T18:26:48.173Z,82.20
2022-11-03T18:29:16.547Z,82.30
2022-11-03T18:31:46.904Z,82.40
2022-11-03T18:34:16.015Z,82.50
2022-11-03T18:36:44.474Z,82.50
2022-11-03T18:39:15.840Z,82.50
2022-11-03T18:41:46.060Z,82.60
2022-11-03T18:44:19.260Z,82.20
2022-11-03T18:46:48.095Z,82.00
2022-11-03T18:49:17.959Z,82.20
2022-11-03T18:51:48.444Z,82.40
2022-11-03T18:56:53.423Z,82.90
2022-11-03T18:59:24.267Z,83.10
2022-11-03T19:01:53.101Z,83.20
2022-11-03T19:04:21.392Z,83.20
2022-11-03T19:06:51.467Z,83.20
2022-11-03T19:09:21.425Z,83.20
2022-11-03T19:11:51.258Z,83.10
2022-11-03T19:14:23.707Z,83.10
2022-11-03T19:17:22.414Z,83.20
2022-11-03T19:19:42.408Z,83.30
2022-11-03T19:22:27.000Z,83.40
2022-11-03T19:39:34.381Z,82.90
2022-11-03T19:42:20.362Z,82.80
2022-11-03T19:44:50.630Z,83.00
2022-11-03T19:47:19.228Z,82.90
2022-11-03T19:49:47.928Z,82.80
2022-11-03T19:52:16.444Z,82.80
2022-11-03T19:54:47.445Z,82.70
2022-11-03T19:57:16.926Z,82.60
2022-11-03T19:59:45.856Z,82.50
2022-11-03T20:02:14.038Z,82.40
2022-11-03T20:04:47.368Z,82.50
2022-11-03T20:07:16.569Z,82.70
2022-11-03T20:09:46.728Z,82.90
2022-11-03T20:12:19.932Z,83.10
2022-11-03T20:14:48.454Z,83.20
2022-11-03T20:17:17.881Z,83.40
2022-11-03T20:19:46.335Z,83.50
2022-11-03T20:22:15.987Z,83.80
2022-11-03T20:24:45.068Z,83.30
2022-11-03T20:27:15.140Z,83.60
2022-11-03T20:29:43.263Z,83.70
2022-11-03T20:32:12.784Z,83.90
2022-11-03T20:34:41.069Z,84.00
2022-11-03T20:37:15.933Z,84.20
2022-11-03T20:39:44.479Z,84.30
2022-11-03T20:42:18.710Z,84.30
2022-11-03T20:44:48.452Z,84.30
2022-11-03T20:47:17.596Z,84.40
2022-11-03T20:49:45.901Z,84.50
2022-11-03T20:52:14.935Z,84.50
2022-11-03T20:54:49.616Z,84.60
2022-11-03T20:57:17.928Z,84.60
2022-11-03T20:59:46.122Z,84.50
2022-11-03T21:02:16.361Z,84.60
2022-11-03T21:04:44.479Z,84.50
2022-11-03T21:07:13.784Z,84.40
2022-11-03T21:09:42.570Z,84.40
2022-11-03T21:12:13.206Z,84.20
2022-11-03T21:15:02.296Z,84.00
2022-11-03T21:17:49.594Z,83.80
2022-11-03T21:20:17.976Z,83.70
2022-11-03T21:22:52.488Z,83.70
2022-11-03T21:25:23.817Z,83.60
2022-11-03T21:28:04.571Z,83.60
2022-11-03T21:30:33.036Z,83.60
2022-11-03T21:33:02.709Z,83.60
2022-11-03T21:35:31.246Z,83.60
2022-11-03T21:37:59.630Z,83.50
2022-11-03T21:40:27.941Z,83.50
2022-11-03T21:43:13.715Z,83.50
2022-11-03T21:45:42.035Z,83.50
2022-11-03T21:48:29.512Z,83.60
2022-11-03T21:51:01.351Z,83.50
2022-11-03T21:53:29.994Z,83.50
2022-11-03T21:55:58.392Z,83.50
2022-11-03T21:58:26.754Z,83.70
2022-11-03T22:00:55.054Z,83.80
2022-11-03T22:03:25.373Z,83.80
2022-11-03T22:05:53.550Z,83.90
2022-11-03T22:08:21.686Z,83.90
2022-11-03T22:10:50.304Z,83.90
2022-11-03T22:13:18.482Z,83.90
2022-11-03T22:16:04.279Z,83.80
2022-11-03T22:18:33.726Z,83.80
2022-11-03T22:21:19.280Z,83.80
2022-11-03T22:24:10.235Z,83.90
2022-11-03T22:26:55.693Z,83.90
2022-11-03T22:29:40.961Z,84.00
2022-11-03T22:32:13.727Z,84.10
2022-11-03T22:35:00.924Z,84.20
2022-11-03T22:40:17.495Z,84.20
2022-11-03T22:43:02.907Z,84.20
2022-11-03T22:45:48.255Z,84.20
2022-11-03T22:48:16.229Z,84.30
2022-11-03T22:50:45.747Z,84.30
2022-11-03T22:53:31.281Z,84.30
2022-11-03T22:55:59.992Z,84.40
2022-11-03T22:58:30.620Z,84.50
2022-11-03T23:00:58.878Z,84.50
2022-11-03T23:03:27.154Z,84.70
2022-11-03T23:27:33.868Z,84.70
2022-11-03T23:30:01.815Z,84.70
2022-11-03T23:32:29.789Z,84.60
2022-11-03T23:34:58.098Z,84.60
2022-11-03T23:37:26.119Z,84.50
2022-11-03T23:39:54.032Z,84.40
2022-11-03T23:42:21.959Z,84.30
2022-11-03T23:45:08.773Z,84.30
2022-11-03T23:47:54.287Z,84.30
2022-11-03T23:50:22.298Z,84.30
2022-11-03T23:52:50.453Z,84.30
2022-11-03T23:55:18.303Z,84.30
2022-11-03T23:58:04.989Z,84.30
